Terminal Aerodrome Forecast
Issued by NWS Midland/Odessa, TX

Home | Current Version | Previous Version | Text Only | Print | Product List | Glossary On
Versions: 1 2 3 4 5 6 7 8 9 10 11 12 13 14 15 16
619
FTUS44 KMAF 222339
TAFMAF
TAF
KMAF 222339Z 2300/2324 16018G24KT P6SM FEW150
     FM231000 16019G25KT P6SM OVC010
     FM231900 16025G34KT P6SM FEW100=

USA.gov is the U.S. government's official web portal to all federal, state and local government web resources and services.